Time;durP1;ratioP1;P1;durP2;ratioP2;P2;SDS_P1;SDS_P2;PMS_P1;PMS_P2;Temp;Humidity;BMP_temperature;BMP_pressure;BME280_temperature;BME280_humidity;BME280_pressure;Samples;Min_cycle;Max_cycle;Signal;HPM_P1;HPM_P2
2022/12/18 00:02:30;;;;;;;5.30;3.80;;;18.80;51.30;;;;;;6243751;28;20025;-70
2022/12/18 00:05:30;;;;;;;5.10;3.30;;;18.80;51.40;;;;;;6241994;28;20038;-70
2022/12/18 00:08:31;;;;;;;4.93;3.40;;;18.80;51.30;;;;;;6244487;28;20072;-70
2022/12/18 00:11:32;;;;;;;3.90;2.90;;;18.80;51.30;;;;;;6248061;28;20540;-70
2022/12/18 00:14:33;;;;;;;5.03;2.95;;;18.80;51.30;;;;;;6248425;28;20049;-70
2022/12/18 00:17:33;;;;;;;4.15;2.90;;;18.70;51.20;;;;;;6248219;28;20052;-70
2022/12/18 00:20:39;;;;;;;4.28;3.13;;;18.80;51.30;;;;;;6248479;28;20032;-70
2022/12/18 00:23:41;;;;;;;4.07;3.20;;;18.70;51.20;;;;;;6247887;28;20022;-70
2022/12/18 00:26:42;;;;;;;4.03;3.00;;;18.70;51.20;;;;;;6247687;28;20030;-70
2022/12/18 00:29:42;;;;;;;4.82;3.60;;;18.70;51.20;;;;;;6247854;28;20030;-70
2022/12/18 00:32:43;;;;;;;3.85;2.85;;;18.70;51.20;;;;;;6247944;28;20156;-70
2022/12/18 00:35:44;;;;;;;3.80;3.17;;;18.70;51.20;;;;;;6248397;28;20100;-70
2022/12/18 00:38:45;;;;;;;4.63;3.25;;;18.70;51.20;;;;;;6247753;28;20478;-70
2022/12/18 00:45:06;;;;;;;5.18;3.03;;;18.70;51.30;;;;;;6247483;28;20037;-70
2022/12/18 00:48:06;;;;;;;5.00;3.15;;;18.70;51.20;;;;;;6247465;28;20049;-69
2022/12/18 00:51:08;;;;;;;3.80;2.97;;;18.70;51.20;;;;;;6262664;28;20025;-70
2022/12/18 00:54:09;;;;;;;4.65;3.08;;;18.70;51.20;;;;;;6247026;28;20059;-70
2022/12/18 00:57:10;;;;;;;3.95;2.80;;;18.70;51.20;;;;;;6246964;28;20084;-70
2022/12/18 01:00:13;;;;;;;4.03;2.85;;;18.70;51.30;;;;;;6247061;28;20026;-70
2022/12/18 01:03:14;;;;;;;4.97;3.53;;;18.70;51.30;;;;;;6246800;28;20029;-70
2022/12/18 01:06:16;;;;;;;4.05;2.80;;;18.70;51.20;;;;;;6262137;28;20073;-70
2022/12/18 01:09:17;;;;;;;5.05;3.03;;;18.70;51.20;;;;;;6245543;28;20037;-70
2022/12/18 01:12:18;;;;;;;4.57;3.25;;;18.70;51.20;;;;;;6246713;28;20474;-70
2022/12/18 01:15:19;;;;;;;5.28;3.45;;;18.70;51.20;;;;;;6246516;28;20017;-70
2022/12/18 01:18:21;;;;;;;4.57;3.08;;;18.70;51.20;;;;;;6245483;28;20053;-70
2022/12/18 01:21:23;;;;;;;4.75;3.22;;;18.70;51.20;;;;;;6246127;28;20033;-69
2022/12/18 01:24:25;;;;;;;3.88;2.90;;;18.70;51.20;;;;;;6246382;28;20375;-70
2022/12/18 01:27:26;;;;;;;3.85;3.08;;;18.70;51.20;;;;;;6245236;28;20029;-70
2022/12/18 01:30:26;;;;;;;4.28;2.97;;;18.80;51.30;;;;;;6246293;28;20087;-70
2022/12/18 01:33:27;;;;;;;5.20;2.90;;;18.80;52.00;;;;;;6244781;28;20501;-73
2022/12/18 01:36:30;;;;;;;3.58;2.70;;;18.80;51.30;;;;;;6246509;28;20109;-70
2022/12/18 01:39:32;;;;;;;4.30;3.22;;;18.80;51.40;;;;;;6245976;28;20025;-70
2022/12/18 01:42:33;;;;;;;4.05;2.97;;;18.80;51.40;;;;;;6246048;28;20057;-70
2022/12/18 01:45:33;;;;;;;4.03;3.22;;;18.70;51.30;;;;;;6261761;28;20107;-70
2022/12/18 01:48:34;;;;;;;4.38;3.15;;;18.70;51.30;;;;;;6245905;28;20394;-69
2022/12/18 01:51:35;;;;;;;4.13;3.05;;;18.70;51.20;;;;;;6246586;28;20026;-70
2022/12/18 01:54:36;;;;;;;4.53;3.20;;;18.70;51.30;;;;;;6245870;28;20025;-70
2022/12/18 01:57:38;;;;;;;4.40;2.78;;;18.70;51.30;;;;;;6245714;28;20056;-70
2022/12/18 02:00:39;;;;;;;3.50;2.67;;;18.70;51.20;;;;;;6244459;28;20052;-70
2022/12/18 02:03:44;;;;;;;4.20;3.10;;;18.70;51.30;;;;;;6246036;28;20028;-69
2022/12/18 02:06:45;;;;;;;;;;;18.70;51.30;;;;;;6246159;28;20029;-69
2022/12/18 02:09:56;;;;;;;4.00;2.90;;;18.70;52.00;;;;;;6245477;28;19909;-69
2022/12/18 02:13:11;;;;;;;3.85;2.83;;;18.70;51.30;;;;;;6245492;28;20096;-69
2022/12/18 02:16:35;;;;;;;4.38;2.95;;;18.70;51.30;;;;;;6245280;28;20075;-68
2022/12/18 02:20:03;;;;;;;4.15;2.60;;;18.70;51.30;;;;;;6245104;28;20044;-69
2022/12/18 02:23:41;;;;;;;4.40;2.95;;;18.70;51.30;;;;;;6245473;28;20040;-69
2022/12/18 02:26:52;;;;;;;3.85;3.00;;;18.70;51.20;;;;;;6243554;28;20128;-69
2022/12/18 02:29:56;;;;;;;3.90;2.95;;;18.70;51.30;;;;;;6245153;28;20148;-69
2022/12/18 02:32:59;;;;;;;4.45;3.00;;;18.70;51.20;;;;;;6244075;28;20022;-69
2022/12/18 02:36:01;;;;;;;3.70;2.75;;;18.70;51.20;;;;;;6245042;28;20076;-69
2022/12/18 02:39:03;;;;;;;4.05;3.03;;;18.80;51.20;;;;;;6243739;28;20526;-69
2022/12/18 02:42:07;;;;;;;4.35;3.10;;;18.80;51.20;;;;;;6244979;28;20110;-69
2022/12/18 02:45:08;;;;;;;4.15;2.90;;;18.80;51.20;;;;;;6243583;28;20065;-69
2022/12/18 02:48:09;;;;;;;3.58;2.60;;;18.80;51.20;;;;;;6259871;28;20025;-69
2022/12/18 02:51:37;;;;;;;3.90;3.00;;;18.80;51.20;;;;;;6244636;28;20025;-69
2022/12/18 02:54:49;;;;;;;4.35;3.08;;;18.80;51.30;;;;;;6244425;28;20446;-69
2022/12/18 02:57:55;;;;;;;4.07;3.03;;;18.80;51.30;;;;;;6244684;28;20076;-69
2022/12/18 03:01:09;;;;;;;4.25;3.03;;;18.80;51.20;;;;;;6243269;28;20040;-69
2022/12/18 03:04:21;;;;;;;5.35;3.33;;;18.80;51.30;;;;;;6244275;28;20021;-69
2022/12/18 03:07:49;;;;;;;3.63;2.72;;;18.80;51.20;;;;;;6244532;28;20112;-69
2022/12/18 03:11:05;;;;;;;3.83;2.72;;;18.80;51.30;;;;;;6243668;28;20025;-69
2022/12/18 03:14:09;;;;;;;4.35;3.17;;;18.80;51.20;;;;;;6244579;28;20097;-69
2022/12/18 03:17:16;;;;;;;4.07;2.80;;;18.80;51.30;;;;;;6244125;28;20029;-69
2022/12/18 03:20:20;;;;;;;5.20;3.13;;;18.80;51.20;;;;;;6244300;28;20091;-69
2022/12/18 03:23:25;;;;;;;7.45;3.20;;;18.80;51.30;;;;;;6243517;28;20025;-68
2022/12/18 03:26:27;;;;;;;;;;;18.80;51.30;;;;;;6244715;28;20068;-69
2022/12/18 03:29:32;;;;;;;3.70;2.83;;;18.80;51.30;;;;;;6243553;28;19909;-69
2022/12/18 03:32:56;;;;;;;4.60;3.20;;;18.80;51.20;;;;;;6243730;28;20408;-69
2022/12/18 03:35:56;;;;;;;3.72;2.83;;;18.80;51.20;;;;;;6242366;28;20026;-69
2022/12/18 03:38:57;;;;;;;3.15;2.67;;;18.80;51.10;;;;;;6242677;28;20017;-69
2022/12/18 03:42:23;;;;;;;4.25;2.95;;;18.80;51.20;;;;;;6243610;28;20037;-69
2022/12/18 03:45:37;;;;;;;4.75;3.13;;;18.80;51.10;;;;;;6243323;28;20022;-69
2022/12/18 03:48:44;;;;;;;2.75;2.08;;;18.80;51.10;;;;;;6242273;28;20032;-68
2022/12/18 03:52:10;;;;;;;4.80;3.03;;;18.80;51.10;;;;;;6242301;28;20041;-69
2022/12/18 03:55:12;;;;;;;4.50;3.47;;;18.80;51.10;;;;;;6242979;28;20052;-69
2022/12/18 03:58:17;;;;;;;4.63;2.90;;;18.80;51.00;;;;;;6243452;28;20025;-69
2022/12/18 04:01:19;;;;;;;;;;;18.80;51.00;;;;;;6243862;28;20049;-68
2022/12/18 04:04:21;;;;;;;3.78;2.78;;;18.80;51.20;;;;;;6243440;28;19908;-68
2022/12/18 04:07:23;;;;;;;4.35;3.05;;;18.80;51.20;;;;;;6243767;28;20105;-69
2022/12/18 04:10:24;;;;;;;4.35;3.05;;;18.80;51.10;;;;;;6243020;28;20038;-69
2022/12/18 04:13:29;;;;;;;4.22;3.08;;;18.80;51.10;;;;;;6243947;28;20017;-69
2022/12/18 04:16:29;;;;;;;4.05;3.00;;;18.80;51.10;;;;;;6242154;28;20079;-69
2022/12/18 04:19:30;;;;;;;3.55;2.83;;;18.80;51.20;;;;;;6243311;28;20112;-69
2022/12/18 04:22:31;;;;;;;4.22;2.95;;;18.80;51.10;;;;;;6242853;28;20419;-69
2022/12/18 04:25:32;;;;;;;4.15;2.88;;;18.80;51.20;;;;;;6242954;28;20441;-69
2022/12/18 04:28:32;;;;;;;4.45;2.92;;;18.80;51.20;;;;;;6241564;28;20033;-69
2022/12/18 04:31:33;;;;;;;3.72;3.00;;;18.80;51.10;;;;;;6241571;28;20490;-69
2022/12/18 04:34:33;;;;;;;4.38;3.40;;;18.80;51.20;;;;;;6242709;28;20021;-69
2022/12/18 04:37:34;;;;;;;4.55;3.20;;;18.70;51.20;;;;;;6243738;28;20017;-69
2022/12/18 04:40:36;;;;;;;5.45;3.40;;;18.70;51.10;;;;;;6242557;28;20114;-69
2022/12/18 04:43:38;;;;;;;5.22;3.28;;;18.80;51.20;;;;;;6243161;28;20034;-69
2022/12/18 04:46:39;;;;;;;4.00;3.10;;;18.80;51.20;;;;;;6243698;28;20068;-67
2022/12/18 04:49:39;;;;;;;4.65;3.30;;;18.70;51.20;;;;;;6243556;28;20036;-67
2022/12/18 04:52:40;;;;;;;3.97;3.20;;;18.70;51.10;;;;;;6241166;28;20036;-69
2022/12/18 04:55:41;;;;;;;3.75;2.63;;;18.80;51.30;;;;;;6243019;28;20132;-69
2022/12/18 04:58:43;;;;;;;4.03;2.92;;;18.70;51.20;;;;;;6246149;28;20127;-69
2022/12/18 05:01:45;;;;;;;5.43;3.45;;;18.70;51.10;;;;;;6246842;28;20033;-69
2022/12/18 05:04:46;;;;;;;4.53;3.05;;;18.70;51.10;;;;;;6246687;28;20029;-69
2022/12/18 05:07:46;;;;;;;4.18;3.15;;;18.70;51.10;;;;;;6247094;28;20391;-69
2022/12/18 05:10:47;;;;;;;4.25;3.40;;;18.80;51.10;;;;;;6246755;28;20112;-69
2022/12/18 05:13:48;;;;;;;5.28;3.38;;;18.70;51.10;;;;;;6246325;28;20056;-69
2022/12/18 05:16:49;;;;;;;4.53;3.13;;;18.80;51.00;;;;;;6246494;28;20025;-69
2022/12/18 05:19:49;;;;;;;4.68;3.40;;;18.80;51.10;;;;;;6246598;28;20060;-69
2022/12/18 05:22:51;;;;;;;5.00;3.67;;;18.70;51.00;;;;;;6247083;28;20052;-69
2022/12/18 05:25:58;;;;;;;5.28;3.60;;;18.80;51.10;;;;;;6246538;28;20029;-70
2022/12/18 05:28:58;;;;;;;4.78;3.30;;;18.80;51.20;;;;;;6246646;28;20033;-69
2022/12/18 05:31:59;;;;;;;4.85;3.45;;;18.80;51.20;;;;;;6244907;28;20068;-69
2022/12/18 05:35:00;;;;;;;5.28;3.80;;;18.80;51.20;;;;;;6246256;28;20479;-69
2022/12/18 05:38:01;;;;;;;5.22;3.42;;;18.80;51.20;;;;;;6246701;28;20029;-69
2022/12/18 05:41:02;;;;;;;5.38;3.78;;;18.80;51.20;;;;;;6246251;28;20608;-73
2022/12/18 05:44:03;;;;;;;6.20;3.88;;;18.80;51.10;;;;;;6244448;28;20033;-70
2022/12/18 05:47:04;;;;;;;5.97;3.40;;;18.80;51.20;;;;;;6245735;28;20072;-69
2022/12/18 05:50:06;;;;;;;4.35;3.28;;;18.80;51.20;;;;;;6245780;28;20434;-69
2022/12/18 05:53:08;;;;;;;5.35;3.50;;;18.80;51.30;;;;;;6261113;28;20108;-69
2022/12/18 05:56:12;;;;;;;5.25;3.58;;;18.80;51.20;;;;;;6244201;28;20045;-69
2022/12/18 05:59:12;;;;;;;5.47;3.83;;;18.80;51.20;;;;;;6245908;28;20106;-69
2022/12/18 06:02:13;;;;;;;5.28;3.80;;;18.70;51.20;;;;;;6243754;28;20033;-69
2022/12/18 06:05:14;;;;;;;4.72;3.45;;;18.80;51.20;;;;;;6245777;28;20030;-69
2022/12/18 06:08:15;;;;;;;5.15;3.50;;;18.80;51.20;;;;;;6245227;28;20537;-68
2022/12/18 06:11:25;;;;;;;4.13;3.10;;;18.80;51.20;;;;;;6243983;28;20498;-69
2022/12/18 06:14:25;;;;;;;4.15;3.28;;;18.80;51.20;;;;;;6245370;28;20022;-69
2022/12/18 06:17:30;;;;;;;4.32;3.28;;;18.80;51.30;;;;;;6243869;28;20026;-69
2022/12/18 06:20:31;;;;;;;4.80;3.63;;;18.80;51.20;;;;;;6245585;28;20647;-69
2022/12/18 06:23:32;;;;;;;5.35;3.38;;;18.80;51.20;;;;;;6243389;28;20037;-69
2022/12/18 06:26:33;;;;;;;5.07;3.40;;;18.80;51.30;;;;;;6244942;28;20029;-68
2022/12/18 06:29:34;;;;;;;4.72;3.53;;;18.80;51.20;;;;;;6245289;28;20565;-69
2022/12/18 06:32:35;;;;;;;4.20;3.20;;;18.80;51.10;;;;;;6244712;28;20022;-68
2022/12/18 06:35:35;;;;;;;4.50;3.45;;;18.80;51.20;;;;;;6244818;28;20036;-69
2022/12/18 06:38:40;;;;;;;5.10;3.13;;;18.80;51.10;;;;;;6244990;28;20096;-69
2022/12/18 06:41:41;;;;;;;5.13;3.70;;;18.80;51.10;;;;;;6244651;28;20025;-69
2022/12/18 06:44:41;;;;;;;4.72;3.40;;;18.80;51.20;;;;;;6243430;28;20276;-69
2022/12/18 06:47:42;;;;;;;4.55;3.38;;;18.80;51.10;;;;;;6244312;28;20022;-69
2022/12/18 06:50:43;;;;;;;5.25;3.70;;;18.80;51.30;;;;;;6243256;28;20037;-69
2022/12/18 06:53:43;;;;;;;4.90;3.53;;;18.80;51.10;;;;;;6244277;28;20021;-69
2022/12/18 06:56:45;;;;;;;5.65;4.15;;;18.80;51.30;;;;;;6244426;28;20050;-69
2022/12/18 06:59:46;;;;;;;6.30;4.05;;;18.80;51.30;;;;;;6244280;28;20030;-69
2022/12/18 07:02:47;;;;;;;4.38;3.22;;;18.80;51.30;;;;;;6243009;28;20131;-69
2022/12/18 07:05:47;;;;;;;5.18;3.30;;;18.80;51.20;;;;;;6242993;28;20639;-69
2022/12/18 07:08:49;;;;;;;4.78;3.70;;;18.80;51.20;;;;;;6244390;28;20034;-69
2022/12/18 07:11:50;;;;;;;5.75;3.83;;;18.80;51.20;;;;;;6242742;28;20059;-69
2022/12/18 07:14:52;;;;;;;4.97;3.75;;;18.80;51.10;;;;;;6243914;28;20199;-69
2022/12/18 07:17:52;;;;;;;4.68;3.55;;;18.80;51.20;;;;;;6242301;28;20033;-69
2022/12/18 07:20:53;;;;;;;5.35;3.70;;;18.80;51.20;;;;;;6242556;28;20091;-69
2022/12/18 07:23:54;;;;;;;5.10;3.58;;;18.80;51.10;;;;;;6242627;28;20459;-69
2022/12/18 07:26:54;;;;;;;5.38;3.85;;;18.80;51.10;;;;;;6243573;28;20520;-69
2022/12/18 07:29:55;;;;;;;4.15;3.17;;;18.80;51.00;;;;;;6243689;28;20473;-69
2022/12/18 07:32:56;;;;;;;6.10;3.88;;;18.80;51.00;;;;;;6243595;28;20036;-69
2022/12/18 07:35:59;;;;;;;5.85;3.53;;;18.80;51.00;;;;;;6243495;28;20104;-69
2022/12/18 07:38:59;;;;;;;4.38;3.42;;;18.80;51.00;;;;;;6243614;28;20044;-69
2022/12/18 07:45:19;;;;;;;6.00;3.60;;;18.80;51.10;;;;;;6243521;28;20030;-67
2022/12/18 07:48:20;;;;;;;5.93;3.55;;;18.80;51.10;;;;;;6245015;28;20028;-67
2022/12/18 07:51:21;;;;;;;4.78;3.42;;;18.80;51.10;;;;;;6244126;28;20033;-66
2022/12/18 07:54:22;;;;;;;5.05;3.80;;;18.80;51.10;;;;;;6243216;28;20022;-67
2022/12/18 07:57:23;;;;;;;4.85;3.30;;;18.80;51.20;;;;;;6243979;28;20042;-66
2022/12/18 08:00:24;;;;;;;4.82;3.67;;;18.80;51.20;;;;;;6244152;28;20037;-66
2022/12/18 08:03:24;;;;;;;4.88;3.65;;;18.80;51.10;;;;;;6244583;28;20390;-67
2022/12/18 08:06:25;;;;;;;4.15;3.20;;;18.80;51.00;;;;;;6244449;28;20108;-66
2022/12/18 08:09:26;;;;;;;5.13;3.70;;;18.80;51.00;;;;;;6244030;28;20375;-67
2022/12/18 08:12:27;;;;;;;4.93;3.60;;;18.80;51.10;;;;;;6243111;28;20048;-67
2022/12/18 08:15:27;;;;;;;4.13;3.30;;;18.80;51.10;;;;;;6243164;28;20056;-67
2022/12/18 08:18:29;;;;;;;4.85;3.65;;;18.80;51.00;;;;;;6241702;28;20022;-67
2022/12/18 08:21:31;;;;;;;3.78;3.08;;;18.80;51.10;;;;;;6242756;28;20029;-67
2022/12/18 08:24:32;;;;;;;4.57;3.30;;;18.80;51.00;;;;;;6243284;28;20033;-67
2022/12/18 08:27:32;;;;;;;4.75;3.63;;;18.80;51.10;;;;;;6243150;28;20398;-67
2022/12/18 08:30:33;;;;;;;4.93;3.40;;;18.80;51.10;;;;;;6242512;28;20057;-67
2022/12/18 08:33:35;;;;;;;4.88;3.63;;;18.80;51.00;;;;;;6262700;28;20025;-67
2022/12/18 08:36:36;;;;;;;4.88;3.42;;;18.80;51.00;;;;;;6248170;28;20385;-67
2022/12/18 08:39:37;;;;;;;5.30;3.70;;;18.80;51.00;;;;;;6248151;28;20026;-67
2022/12/18 08:45:57;;;;;;;4.82;3.30;;;18.80;51.10;;;;;;6248137;28;20037;-67
2022/12/18 08:48:57;;;;;;;5.88;3.75;;;18.80;51.00;;;;;;6247522;28;20110;-67
2022/12/18 08:51:58;;;;;;;4.82;3.55;;;18.80;51.00;;;;;;6247512;28;20026;-67
2022/12/18 08:54:59;;;;;;;3.95;3.20;;;18.80;51.20;;;;;;6247405;28;20438;-67
2022/12/18 08:58:00;;;;;;;5.00;3.70;;;18.80;51.00;;;;;;6247684;28;20064;-67
2022/12/18 09:01:02;;;;;;;4.43;3.50;;;18.80;51.00;;;;;;6247610;28;20125;-67
2022/12/18 09:04:03;;;;;;;4.75;3.53;;;18.80;51.10;;;;;;6247792;28;20717;-67
2022/12/18 09:07:04;;;;;;;4.13;3.00;;;18.80;51.20;;;;;;6247203;28;20029;-67
2022/12/18 09:10:05;;;;;;;5.20;3.60;;;18.80;51.00;;;;;;6247139;28;20069;-67
2022/12/18 09:13:06;;;;;;;4.57;3.38;;;18.80;51.00;;;;;;6246850;28;20109;-67
2022/12/18 09:16:07;;;;;;;3.92;3.20;;;18.80;51.10;;;;;;6247927;28;20052;-67
2022/12/18 09:19:09;;;;;;;4.50;3.47;;;18.80;51.00;;;;;;6247796;28;20391;-67
2022/12/18 09:22:09;;;;;;;4.10;3.10;;;18.80;51.10;;;;;;6247698;28;20030;-67
2022/12/18 09:25:10;;;;;;;5.35;3.45;;;18.80;51.10;;;;;;6247773;28;20040;-67
2022/12/18 09:28:17;;;;;;;4.43;3.47;;;18.80;51.10;;;;;;6247628;28;20033;-67
2022/12/18 09:31:21;;;;;;;4.53;3.17;;;18.80;51.20;;;;;;6247569;28;20025;-67
2022/12/18 09:34:22;;;;;;;5.40;3.53;;;18.80;51.10;;;;;;6247597;28;20049;-68
2022/12/18 09:37:23;;;;;;;5.40;3.20;;;18.80;51.10;;;;;;6242121;28;20032;-68
2022/12/18 09:40:28;;;;;;;4.35;3.40;;;18.80;51.10;;;;;;6244680;28;20061;-71
2022/12/18 09:43:32;;;;;;;5.60;3.53;;;18.80;51.10;;;;;;6252332;28;20136;-70
2022/12/18 09:46:43;;;;;;;5.28;3.38;;;18.80;51.10;;;;;;6220706;28;20037;-68
2022/12/18 09:49:46;;;;;;;4.15;3.30;;;18.80;51.10;;;;;;6237927;28;20505;-67
2022/12/18 09:52:52;;;;;;;4.22;3.20;;;18.80;51.10;;;;;;6248454;28;20057;-68
2022/12/18 09:55:54;;;;;;;4.68;3.45;;;18.80;51.20;;;;;;6244890;28;20685;-68
2022/12/18 09:58:57;;;;;;;4.20;3.15;;;18.80;51.20;;;;;;6244402;28;20083;-68
2022/12/18 10:01:58;;;;;;;4.68;3.45;;;18.80;51.20;;;;;;6244077;28;20028;-68
2022/12/18 10:05:14;;;;;;;3.40;2.75;;;18.80;51.20;;;;;;6260234;28;20056;-65
2022/12/18 10:08:45;;;;;;;3.97;3.17;;;18.80;51.20;;;;;;6247605;28;20033;-65
2022/12/18 10:12:12;;;;;;;4.70;3.55;;;18.80;51.20;;;;;;6244620;28;20025;-66
2022/12/18 10:15:33;;;;;;;4.38;3.10;;;18.80;51.20;;;;;;6244668;28;20112;-65
2022/12/18 10:18:36;;;;;;;4.07;3.25;;;18.80;51.10;;;;;;6245271;28;20395;-65
2022/12/18 10:21:59;;;;;;;4.88;2.95;;;18.80;51.10;;;;;;6245945;28;20033;-65
2022/12/18 10:25:14;;;;;;;4.70;3.20;;;18.80;51.20;;;;;;6244355;28;20108;-65
2022/12/18 10:28:17;;;;;;;4.18;3.00;;;18.80;51.10;;;;;;6246238;28;20104;-64
2022/12/18 10:31:21;;;;;;;4.38;2.80;;;18.80;51.20;;;;;;6245883;28;20108;-65
2022/12/18 10:34:23;;;;;;;4.88;3.28;;;18.80;51.20;;;;;;6245883;28;20025;-65
2022/12/18 10:37:26;;;;;;;4.07;3.15;;;18.80;51.20;;;;;;6246089;28;20418;-65
2022/12/18 10:40:27;;;;;;;5.70;3.20;;;18.80;51.30;;;;;;6245955;28;20503;-65
2022/12/18 10:43:32;;;;;;;5.18;3.38;;;18.80;51.30;;;;;;6245546;28;20168;-65
2022/12/18 10:46:33;;;;;;;;;;;18.80;51.30;;;;;;6245884;28;20246;-65
2022/12/18 10:49:35;;;;;;;6.60;3.28;;;18.80;51.20;;;;;;6245702;28;19959;-65
2022/12/18 10:52:36;;;;;;;5.85;3.17;;;18.80;51.20;;;;;;6243412;28;20022;-65
2022/12/18 10:55:45;;;;;;;5.68;3.90;;;18.80;51.20;;;;;;6245089;28;20538;-65
2022/12/18 10:58:58;;;;;;;4.30;2.88;;;18.80;51.20;;;;;;6245407;28;20021;-65
2022/12/18 11:01:59;;;;;;;5.78;3.60;;;18.80;51.20;;;;;;6244925;28;20025;-65
2022/12/18 11:04:59;;;;;;;5.38;3.15;;;18.80;51.30;;;;;;6245213;28;20061;-65
2022/12/18 11:08:01;;;;;;;6.47;2.90;;;18.80;51.20;;;;;;6244842;28;20037;-64
2022/12/18 11:11:03;;;;;;;5.28;3.55;;;18.80;51.20;;;;;;6244714;28;20029;-65
2022/12/18 11:14:11;;;;;;;4.55;3.28;;;18.80;51.20;;;;;;6240559;28;20018;-63
2022/12/18 11:17:34;;;;;;;6.90;3.53;;;18.80;51.30;;;;;;6232520;28;20049;-63
2022/12/18 11:20:35;;;;;;;9.10;3.15;;;18.80;50.90;;;;;;6241764;28;20064;-64
2022/12/18 11:23:43;;;;;;;5.70;3.53;;;18.80;51.10;;;;;;6241712;28;20061;-64
2022/12/18 11:26:44;;;;;;;4.47;2.78;;;18.80;51.20;;;;;;6242622;28;20553;-64
2022/12/18 11:29:45;;;;;;;4.75;2.85;;;18.80;51.20;;;;;;6243016;28;20029;-63
2022/12/18 11:32:59;;;;;;;8.27;3.25;;;18.80;51.90;;;;;;6243279;28;20018;-64
2022/12/18 11:36:03;;;;;;;6.72;3.42;;;18.80;51.20;;;;;;6239422;28;20026;-64
2022/12/18 11:39:24;;;;;;;7.53;3.03;;;18.80;51.20;;;;;;6242870;28;20158;-64
2022/12/18 11:42:45;;;;;;;4.57;3.05;;;18.80;51.20;;;;;;6243038;28;20508;-64
2022/12/18 11:45:58;;;;;;;6.30;3.50;;;18.80;51.20;;;;;;6242932;28;20038;-64
2022/12/18 11:49:07;;;;;;;6.50;3.30;;;18.80;51.20;;;;;;6252373;28;20022;-64
2022/12/18 11:52:18;;;;;;;8.20;3.25;;;18.80;51.30;;;;;;6254264;28;20078;-64
2022/12/18 11:55:31;;;;;;;6.05;3.47;;;18.80;51.30;;;;;;6268154;28;20490;-64
2022/12/18 11:59:10;;;;;;;7.25;3.40;;;18.80;51.30;;;;;;6267242;28;20025;-64
2022/12/18 12:02:37;;;;;;;5.93;3.35;;;18.80;51.30;;;;;;6256313;28;20484;-64
2022/12/18 12:06:02;;;;;;;6.45;3.55;;;18.80;51.30;;;;;;6270302;28;20025;-63
2022/12/18 12:09:15;;;;;;;5.50;3.73;;;18.80;51.30;;;;;;6223172;28;20548;-63
2022/12/18 12:12:45;;;;;;;6.10;3.25;;;18.80;51.30;;;;;;6242091;28;20351;-63
2022/12/18 12:16:14;;;;;;;5.47;2.92;;;18.80;51.30;;;;;;6272196;28;20024;-64
2022/12/18 12:19:29;;;;;;;5.18;3.28;;;18.80;51.30;;;;;;6259055;28;20031;-64
2022/12/18 12:22:40;;;;;;;5.05;3.17;;;18.80;51.30;;;;;;6251502;28;20096;-63
2022/12/18 12:25:56;;;;;;;7.53;3.10;;;18.80;51.30;;;;;;6247113;28;20021;-64
2022/12/18 12:29:33;;;;;;;6.38;3.25;;;18.80;51.30;;;;;;6247457;28;20029;-63
2022/12/18 12:33:06;;;;;;;7.20;3.53;;;18.80;51.20;;;;;;6247474;28;20021;-64
2022/12/18 12:36:30;;;;;;;4.28;3.13;;;18.80;51.30;;;;;;6234842;28;20112;-63
2022/12/18 12:47:44;;;;;;;6.47;3.47;;;18.80;51.30;;;;;;6248362;28;20025;-64
2022/12/18 12:50:47;;;;;;;9.95;3.20;;;18.80;51.30;;;;;;6246276;28;20030;-64
2022/12/18 12:53:49;;;;;;;3.88;2.90;;;18.90;51.30;;;;;;6260564;28;20518;-64
2022/12/18 12:57:17;;;;;;;8.43;2.95;;;18.80;51.20;;;;;;6264519;28;20106;-64
2022/12/18 13:00:19;;;;;;;9.88;3.28;;;18.90;51.40;;;;;;6236263;28;20039;-64
2022/12/18 13:04:02;;;;;;;5.43;3.50;;;18.80;51.30;;;;;;6229866;28;20681;-65
2022/12/18 13:07:35;;;;;;;5.85;3.40;;;18.80;51.30;;;;;;6249377;28;20100;-64
2022/12/18 13:10:42;;;;;;;5.68;3.38;;;18.80;51.40;;;;;;6248412;28;20390;-64
2022/12/18 13:13:55;;;;;;;7.50;2.78;;;18.80;51.40;;;;;;6255350;28;20474;-65
2022/12/18 13:17:14;;;;;;;6.75;3.17;;;18.80;51.40;;;;;;6244850;28;20021;-64
2022/12/18 13:20:16;;;;;;;6.38;3.20;;;18.80;51.30;;;;;;6245273;28;20517;-63
2022/12/18 13:23:30;;;;;;;8.93;3.00;;;18.80;51.30;;;;;;6246215;28;20083;-62
2022/12/18 13:26:32;;;;;;;6.43;2.35;;;18.80;51.30;;;;;;6242007;28;20116;-62
2022/12/18 13:29:45;;;;;;;4.80;2.92;;;18.80;51.40;;;;;;6242497;28;20025;-63
2022/12/18 13:32:46;;;;;;;8.27;3.47;;;18.80;51.40;;;;;;6246801;28;20030;-63
2022/12/18 13:35:46;;;;;;;5.47;3.38;;;18.80;51.40;;;;;;6245511;28;20670;-63
2022/12/18 13:38:47;;;;;;;6.40;3.30;;;18.80;51.40;;;;;;6255753;28;20547;-63
2022/12/18 13:41:51;;;;;;;5.38;3.47;;;18.80;51.40;;;;;;6245230;28;20025;-62
2022/12/18 13:44:51;;;;;;;4.47;2.95;;;18.80;51.50;;;;;;6245466;28;20025;-63
2022/12/18 13:47:53;;;;;;;6.40;3.70;;;18.80;51.40;;;;;;6244835;28;20052;-64
2022/12/18 13:51:09;;;;;;;6.70;3.80;;;18.80;51.30;;;;;;6245002;28;20018;-63
2022/12/18 13:54:32;;;;;;;7.57;4.15;;;18.80;51.20;;;;;;6245125;28;20028;-62
2022/12/18 13:57:40;;;;;;;7.03;3.83;;;18.80;51.10;;;;;;6220118;28;20064;-63
2022/12/18 14:00:43;;;;;;;8.40;3.97;;;18.80;50.90;;;;;;6248973;28;20151;-62
2022/12/18 14:03:43;;;;;;;6.13;3.90;;;18.80;50.90;;;;;;6244392;28;20080;-63
2022/12/18 14:06:45;;;;;;;5.95;3.42;;;18.80;50.90;;;;;;6243654;28;20065;-63
2022/12/18 14:09:50;;;;;;;7.50;4.68;;;18.80;50.90;;;;;;6231094;28;20025;-63
2022/12/18 14:12:57;;;;;;;7.95;4.07;;;18.80;50.90;;;;;;6269232;28;20614;-63
2022/12/18 14:16:00;;;;;;;7.45;4.85;;;18.80;51.00;;;;;;6248444;28;20026;-62
2022/12/18 14:19:01;;;;;;;10.05;4.78;;;18.80;50.90;;;;;;6244362;28;20025;-63
2022/12/18 14:22:02;;;;;;;6.00;3.80;;;18.80;50.80;;;;;;6235049;28;20056;-63
2022/12/18 14:25:17;;;;;;;6.88;4.35;;;18.80;50.90;;;;;;6256564;28;20049;-63
2022/12/18 14:28:17;;;;;;;8.55;3.95;;;18.80;51.00;;;;;;6244199;28;20739;-63
2022/12/18 14:31:24;;;;;;;8.10;4.78;;;18.80;50.90;;;;;;6244355;28;20029;-64
2022/12/18 14:34:26;;;;;;;9.40;4.78;;;18.90;51.00;;;;;;6244270;28;20505;-63
2022/12/18 14:37:27;;;;;;;8.55;4.65;;;18.90;50.80;;;;;;6230275;28;20507;-65
2022/12/18 14:40:28;;;;;;;9.23;5.00;;;18.90;50.70;;;;;;6232551;28;20029;-64
2022/12/18 14:43:35;;;;;;;12.60;5.32;;;18.90;50.60;;;;;;6268270;28;20033;-63
2022/12/18 14:46:38;;;;;;;8.73;5.07;;;18.90;50.50;;;;;;6255079;28;20033;-63
2022/12/18 14:49:42;;;;;;;8.25;5.25;;;18.90;50.50;;;;;;6243872;28;20025;-62
2022/12/18 14:52:42;;;;;;;11.23;5.55;;;18.90;50.50;;;;;;6243671;28;20025;-63
2022/12/18 14:55:47;;;;;;;13.85;6.65;;;18.90;50.60;;;;;;6260437;28;20095;-63
2022/12/18 14:58:51;;;;;;;13.80;5.87;;;18.90;50.60;;;;;;6242521;28;20061;-64
2022/12/18 15:02:02;;;;;;;11.40;6.00;;;18.90;50.70;;;;;;6241669;28;20274;-63
2022/12/18 15:05:15;;;;;;;13.65;7.18;;;18.90;50.70;;;;;;6242258;28;20105;-62
2022/12/18 15:08:36;;;;;;;14.63;7.13;;;18.90;50.50;;;;;;6242621;28;20034;-62
2022/12/18 15:11:40;;;;;;;13.80;7.97;;;18.90;50.50;;;;;;6231850;28;20116;-62
2022/12/18 15:14:41;;;;;;;16.30;8.38;;;18.90;50.50;;;;;;6243037;28;20068;-63
2022/12/18 15:17:43;;;;;;;16.70;8.20;;;18.90;50.40;;;;;;6264547;28;20047;-66
2022/12/18 15:20:48;;;;;;;14.35;8.13;;;18.80;50.30;;;;;;6260193;28;20098;-67
2022/12/18 15:23:51;;;;;;;16.30;8.98;;;18.90;50.30;;;;;;6257309;28;20033;-63
2022/12/18 15:26:52;;;;;;;16.50;8.35;;;18.80;50.10;;;;;;6241217;28;20091;-63
2022/12/18 15:30:07;;;;;;;17.77;9.00;;;18.80;50.00;;;;;;6226521;28;20450;-63
2022/12/18 15:33:24;;;;;;;19.30;9.00;;;18.90;50.10;;;;;;6242019;28;20013;-63
2022/12/18 15:36:25;;;;;;;17.25;8.95;;;18.90;50.10;;;;;;6245381;28;20037;-62
2022/12/18 15:39:26;;;;;;;16.95;8.43;;;18.90;50.20;;;;;;6241680;28;20079;-63
2022/12/18 15:45:46;;;;;;;18.73;8.60;;;18.90;50.30;;;;;;6240643;28;20394;-63
2022/12/18 15:48:52;;;;;;;14.80;7.88;;;18.90;50.40;;;;;;6241501;28;20036;-62
2022/12/18 15:51:57;;;;;;;18.60;9.25;;;18.90;50.40;;;;;;6245070;28;20028;-62
2022/12/18 15:58:17;;;;;;;15.10;8.68;;;18.80;50.30;;;;;;6244251;28;20412;-61
2022/12/18 16:01:18;;;;;;;19.23;8.27;;;18.80;50.20;;;;;;6241061;28;20052;-62
2022/12/18 16:04:20;;;;;;;13.65;8.30;;;18.80;50.20;;;;;;6241344;28;20034;-62
2022/12/18 16:07:21;;;;;;;16.63;8.48;;;18.80;50.10;;;;;;6229171;28;20041;-62
2022/12/18 16:10:23;;;;;;;13.93;8.05;;;18.80;50.00;;;;;;6252839;28;20035;-60
2022/12/18 16:13:24;;;;;;;15.98;8.68;;;18.80;49.90;;;;;;6241305;28;20013;-62
2022/12/18 16:16:24;;;;;;;16.50;8.55;;;18.80;50.00;;;;;;6223807;28;20057;-62
2022/12/18 16:19:26;;;;;;;14.40;8.02;;;18.80;50.00;;;;;;6240895;28;20026;-61
2022/12/18 16:22:30;;;;;;;14.38;8.50;;;18.70;50.50;;;;;;6239821;28;20091;-63
2022/12/18 16:25:31;;;;;;;14.77;8.35;;;18.70;49.80;;;;;;6241476;28;20021;-62
2022/12/18 16:28:32;;;;;;;14.32;7.97;;;18.70;49.70;;;;;;6242591;28;20096;-62
2022/12/18 16:31:32;;;;;;;12.88;8.15;;;18.70;49.50;;;;;;6241190;28;20038;-61